createdAt,value
2018-12-26T00:02:20.518Z,101821.83
2018-12-26T00:05:35.977Z,101814.17
2018-12-26T00:08:58.645Z,101821.89
2018-12-26T00:12:14.119Z,101824.10
2018-12-26T00:15:29.317Z,101826.87
2018-12-26T00:18:51.697Z,101822.45
2018-12-26T00:22:06.860Z,101785.40
2018-12-26T00:25:22.531Z,101806.66
2018-12-26T00:28:45.291Z,101809.50
2018-12-26T00:32:00.963Z,101808.19
2018-12-26T00:35:16.924Z,101752.02
2018-12-26T00:38:32.243Z,101707.45
2018-12-26T00:41:54.963Z,101807.23
2018-12-26T00:45:10.943Z,101802.58
2018-12-26T00:48:33.622Z,101794.09
2018-12-26T00:51:48.840Z,101793.36
2018-12-26T00:55:11.543Z,101765.02
2018-12-26T00:58:27.337Z,101783.50
2018-12-26T01:01:43.103Z,101781.47
2018-12-26T01:05:05.772Z,101729.19
2018-12-26T01:08:21.832Z,101777.52
2018-12-26T01:11:44.922Z,101778.72
2018-12-26T01:15:00.742Z,101783.00
2018-12-26T01:18:23.135Z,101754.59
2018-12-26T01:21:38.740Z,101774.67
2018-12-26T01:25:01.106Z,101765.54
2018-12-26T01:28:16.543Z,101710.30
2018-12-26T01:31:39.515Z,101688.97
2018-12-26T01:34:55.107Z,101753.19
2018-12-26T01:38:17.791Z,101750.88
2018-12-26T01:41:33.219Z,101757.57
2018-12-26T01:44:55.616Z,101758.11
2018-12-26T01:48:11.465Z,101739.09
2018-12-26T01:51:34.200Z,101763.36
2018-12-26T01:54:49.831Z,101758.33
2018-12-26T01:58:12.219Z,101755.58
2018-12-26T02:01:27.881Z,101746.98
2018-12-26T02:04:50.879Z,101728.87
2018-12-26T02:07:54.079Z,101755.94
2018-12-26T02:11:17.412Z,101742.22
2018-12-26T02:14:39.820Z,101742.80
2018-12-26T02:17:56.064Z,101741.26
2018-12-26T02:21:18.848Z,101700.45
2018-12-26T02:24:34.712Z,101739.03
2018-12-26T02:27:57.377Z,101732.22
2018-12-26T02:31:12.933Z,101749.52
2018-12-26T02:34:35.620Z,101750.73
2018-12-26T02:37:51.269Z,101744.81
2018-12-26T02:41:06.416Z,101739.00
2018-12-26T02:44:28.795Z,101743.11
2018-12-26T02:47:44.731Z,101737.43
2018-12-26T02:51:00.156Z,101722.34
2018-12-26T02:54:22.838Z,101604.31
2018-12-26T02:57:38.239Z,101637.45
2018-12-26T03:00:53.537Z,101667.53
2018-12-26T03:04:16.251Z,101709.77
2018-12-26T03:07:32.164Z,101708.16
2018-12-26T03:10:54.901Z,101711.34
2018-12-26T03:14:10.062Z,101711.76
2018-12-26T03:21:00.279Z,101615.69
2018-12-26T03:24:15.803Z,101701.15
2018-12-26T03:27:31.913Z,101702.84
2018-12-26T03:30:54.643Z,101698.80
2018-12-26T03:34:09.999Z,101696.34
2018-12-26T03:37:25.454Z,101687.44
2018-12-26T03:40:47.824Z,101690.13
2018-12-26T03:44:03.218Z,101687.03
2018-12-26T03:47:25.929Z,101673.80
2018-12-26T03:50:41.556Z,101678.45
2018-12-26T03:54:04.339Z,101682.03
2018-12-26T03:57:19.798Z,101626.78
2018-12-26T04:00:42.413Z,101673.36
2018-12-26T04:03:58.046Z,101655.84
2018-12-26T04:07:20.879Z,101653.58
2018-12-26T04:10:36.039Z,101654.78
2018-12-26T04:13:58.421Z,101568.59
2018-12-26T04:17:11.976Z,101641.62
2018-12-26T04:20:34.458Z,101654.60
2018-12-26T04:23:50.400Z,101652.04
2018-12-26T04:27:15.645Z,101560.16
2018-12-26T04:30:49.916Z,101660.75
2018-12-26T04:34:12.590Z,101665.48
2018-12-26T04:37:28.475Z,101674.36
2018-12-26T04:40:51.156Z,101678.91
2018-12-26T04:44:07.155Z,101675.41
2018-12-26T04:47:29.809Z,101682.17
2018-12-26T04:50:44.852Z,101681.94
2018-12-26T04:54:00.432Z,101564.55
2018-12-26T04:57:24.897Z,101613.83
2018-12-26T05:00:46.639Z,101670.77
2018-12-26T05:04:09.022Z,101660.58
2018-12-26T05:07:24.428Z,101663.30
2018-12-26T05:10:47.120Z,101655.41
2018-12-26T05:14:02.072Z,101651.47
2018-12-26T05:17:17.306Z,101651.52
2018-12-26T05:20:40.035Z,101646.67
2018-12-26T05:23:55.983Z,101660.20
2018-12-26T05:27:18.650Z,101657.88
2018-12-26T05:30:34.549Z,101654.10
2018-12-26T05:33:57.568Z,101654.49
2018-12-26T05:37:13.344Z,101655.56
2018-12-26T05:40:29.670Z,101669.68
2018-12-26T05:43:52.337Z,101665.19
2018-12-26T05:47:07.934Z,101667.32
2018-12-26T05:50:30.405Z,101674.25
2018-12-26T05:53:45.780Z,101575.96
2018-12-26T05:57:08.158Z,101674.78
2018-12-26T06:00:23.940Z,101674.58
2018-12-26T06:03:46.389Z,101672.80
2018-12-26T06:07:02.462Z,101645.25
2018-12-26T06:10:25.211Z,101659.72
2018-12-26T06:13:40.256Z,101668.78
2018-12-26T06:16:55.478Z,101673.87
2018-12-26T06:20:10.809Z,101673.23
2018-12-26T06:23:33.495Z,101677.87
2018-12-26T06:26:49.051Z,101682.73
2018-12-26T06:30:11.703Z,101633.98
2018-12-26T06:33:27.579Z,101691.94
2018-12-26T06:36:49.960Z,101700.52
2018-12-26T06:40:05.145Z,101703.34
2018-12-26T06:43:27.837Z,101707.84
2018-12-26T06:46:42.933Z,101606.48
2018-12-26T06:50:05.671Z,101701.30
2018-12-26T06:53:21.023Z,101686.17
2018-12-26T06:56:44.332Z,101682.16
2018-12-26T06:59:57.863Z,101677.22
2018-12-26T07:03:20.244Z,101673.71
2018-12-26T07:06:36.335Z,101680.58
2018-12-26T07:09:52.191Z,101676.78
2018-12-26T07:13:15.151Z,101667.00
2018-12-26T07:16:30.568Z,101635.34
2018-12-26T07:19:45.976Z,101686.11
2018-12-26T07:23:08.400Z,101690.84
2018-12-26T07:26:24.006Z,101693.66
2018-12-26T07:29:39.516Z,101687.45
2018-12-26T07:33:01.894Z,101690.98
2018-12-26T07:36:17.198Z,101690.48
2018-12-26T07:39:39.893Z,101690.36
2018-12-26T07:42:55.749Z,101688.99
2018-12-26T07:46:11.941Z,101682.59
2018-12-26T07:49:34.628Z,101683.28
2018-12-26T07:52:49.845Z,101670.42
2018-12-26T07:56:12.538Z,101675.62
2018-12-26T07:59:28.281Z,101677.41
2018-12-26T08:02:50.753Z,101679.16
2018-12-26T08:06:04.327Z,101684.03
2018-12-26T08:09:26.697Z,101682.91
2018-12-26T08:12:42.320Z,101695.66
2018-12-26T08:15:57.637Z,101585.67
2018-12-26T08:19:12.835Z,101683.55
2018-12-26T08:22:28.388Z,101669.80
2018-12-26T08:25:50.785Z,101593.45
2018-12-26T08:29:06.705Z,101644.03
2018-12-26T08:32:29.418Z,101683.12
2018-12-26T08:35:45.577Z,101686.23
2018-12-26T08:39:08.268Z,101684.31
2018-12-26T08:42:23.881Z,101683.00
2018-12-26T08:45:46.265Z,101686.11
2018-12-26T08:49:02.507Z,101680.45
2018-12-26T08:52:25.003Z,101582.25
2018-12-26T08:55:40.942Z,101676.33
2018-12-26T08:58:56.509Z,101679.77
2018-12-26T09:02:18.884Z,101683.63
2018-12-26T09:05:34.710Z,101683.84
2018-12-26T09:08:51.176Z,101679.69
2018-12-26T09:12:13.595Z,101688.65
2018-12-26T09:15:29.587Z,101691.80
2018-12-26T09:18:45.306Z,101693.25
2018-12-26T09:22:07.754Z,101701.00
2018-12-26T09:25:23.393Z,101704.03
2018-12-26T09:28:45.789Z,101714.41
2018-12-26T09:32:01.903Z,101712.67
2018-12-26T09:35:16.949Z,101713.56
2018-12-26T09:38:39.725Z,101718.88
2018-12-26T09:41:56.172Z,101717.20
2018-12-26T09:45:11.883Z,101723.97
2018-12-26T09:48:34.592Z,101718.45
2018-12-26T09:51:49.619Z,101710.66
2018-12-26T09:55:12.023Z,101611.57
2018-12-26T09:58:27.774Z,101707.78
2018-12-26T10:01:50.145Z,101703.78
2018-12-26T10:05:06.137Z,101600.13
2018-12-26T10:08:28.940Z,101694.87
2018-12-26T10:11:44.217Z,101695.98
2018-12-26T10:14:59.628Z,101694.45
2018-12-26T10:18:22.028Z,101692.48
2018-12-26T10:21:37.106Z,101612.86
2018-12-26T10:28:41.116Z,101679.76
2018-12-26T10:32:03.488Z,101682.64
2018-12-26T10:35:18.920Z,101678.45
2018-12-26T10:38:41.946Z,101677.98
2018-12-26T10:41:57.153Z,101679.28
2018-12-26T10:45:19.853Z,101671.61
2018-12-26T10:48:35.389Z,101673.40
2018-12-26T10:51:58.075Z,101671.45
2018-12-26T10:55:12.053Z,101674.97
2018-12-26T10:58:34.995Z,101668.92
2018-12-26T11:01:50.772Z,101672.92
2018-12-26T11:05:06.917Z,101668.11
2018-12-26T11:08:29.396Z,101668.95
2018-12-26T11:11:44.613Z,101671.93
2018-12-26T11:14:59.810Z,101664.91
2018-12-26T11:18:22.203Z,101664.30
2018-12-26T11:21:38.220Z,101654.25
2018-12-26T11:24:54.016Z,101657.95
2018-12-26T11:28:16.669Z,101580.91
2018-12-26T11:31:32.376Z,101652.95
2018-12-26T11:34:54.790Z,101560.71
2018-12-26T11:38:09.932Z,101645.55
2018-12-26T11:41:25.390Z,101649.19
2018-12-26T11:44:47.941Z,101556.55
2018-12-26T11:48:03.819Z,101641.75
2018-12-26T11:51:26.209Z,101629.71
2018-12-26T11:54:41.216Z,101623.53
2018-12-26T11:57:56.708Z,101625.67
2018-12-26T12:01:19.094Z,101542.77
2018-12-26T12:04:34.187Z,101570.67
2018-12-26T12:07:49.381Z,101615.00
2018-12-26T12:11:11.878Z,101618.05
2018-12-26T12:14:26.933Z,101614.90
2018-12-26T12:17:42.235Z,101611.98
2018-12-26T12:20:47.269Z,101609.63
2018-12-26T12:24:03.046Z,101611.24
2018-12-26T12:27:25.782Z,101580.84
2018-12-26T12:30:41.716Z,101608.14
2018-12-26T12:34:04.110Z,101609.97
2018-12-26T12:37:19.163Z,101608.97
2018-12-26T12:44:45.204Z,101610.98
2018-12-26T12:48:00.196Z,101615.63
2018-12-26T12:51:22.565Z,101619.14
2018-12-26T12:54:37.748Z,101607.72
2018-12-26T12:58:00.462Z,101603.73
2018-12-26T13:01:16.323Z,101610.38
2018-12-26T13:04:31.507Z,101602.96
2018-12-26T13:07:46.965Z,101604.34
2018-12-26T13:11:02.033Z,101599.97
2018-12-26T13:14:17.732Z,101597.56
2018-12-26T13:17:40.450Z,101598.09
2018-12-26T13:20:56.194Z,101594.16
2018-12-26T13:24:11.353Z,101588.55
2018-12-26T13:27:34.048Z,101603.50
2018-12-26T13:30:49.771Z,101597.09
2018-12-26T13:34:12.608Z,101604.64
2018-12-26T13:37:28.372Z,101600.56
2018-12-26T13:40:51.808Z,101601.45
2018-12-26T13:44:06.926Z,101593.83
2018-12-26T13:47:29.748Z,101595.42
2018-12-26T13:50:46.061Z,101598.56
2018-12-26T13:54:08.785Z,101597.58
2018-12-26T13:57:24.302Z,101595.42
2018-12-26T14:00:39.670Z,101591.75
2018-12-26T14:03:55.470Z,101591.17
2018-12-26T14:07:11.158Z,101585.19
2018-12-26T14:10:26.486Z,101583.94
2018-12-26T14:13:49.289Z,101588.06
2018-12-26T14:17:05.111Z,101585.67
2018-12-26T14:20:27.510Z,101581.67
2018-12-26T14:23:42.506Z,101583.58
2018-12-26T14:27:04.929Z,101582.27
2018-12-26T14:30:19.990Z,101580.16
2018-12-26T14:33:42.392Z,101512.40
2018-12-26T14:36:57.569Z,101589.96
2018-12-26T14:40:19.969Z,101547.07
2018-12-26T14:43:35.254Z,101505.69
2018-12-26T14:46:50.658Z,101584.61
2018-12-26T14:50:13.036Z,101585.81
2018-12-26T14:53:28.319Z,101577.22
2018-12-26T14:56:50.715Z,101584.41
2018-12-26T15:00:06.546Z,101575.75
2018-12-26T15:03:22.325Z,101571.34
2018-12-26T15:06:44.743Z,101575.13
2018-12-26T15:10:00.263Z,101496.16
2018-12-26T15:13:15.698Z,101524.20
2018-12-26T15:16:38.104Z,101565.73
2018-12-26T15:19:53.134Z,101578.48
2018-12-26T15:23:08.207Z,101570.76
2018-12-26T15:26:30.590Z,101568.15
2018-12-26T15:29:45.717Z,101569.92
2018-12-26T15:33:08.140Z,101522.11
2018-12-26T15:36:23.411Z,101555.30
2018-12-26T15:39:39.154Z,101560.86
2018-12-26T15:43:01.656Z,101553.93
2018-12-26T15:46:17.061Z,101558.66
2018-12-26T15:49:32.815Z,101491.74
2018-12-26T15:52:48.526Z,101555.30
2018-12-26T15:56:04.001Z,101476.34
2018-12-26T15:59:20.189Z,101556.67
2018-12-26T16:02:42.582Z,101554.40
2018-12-26T16:05:58.471Z,101534.84
2018-12-26T16:09:13.809Z,101550.36
2018-12-26T16:12:36.527Z,101552.68
2018-12-26T16:15:52.863Z,101555.87
2018-12-26T16:19:08.416Z,101562.33
2018-12-26T16:22:31.113Z,101564.95
2018-12-26T16:25:34.134Z,101518.59
2018-12-26T16:28:56.531Z,101558.39
2018-12-26T16:32:11.667Z,101550.62
2018-12-26T16:35:26.846Z,101551.27
2018-12-26T16:38:49.243Z,101505.64
2018-12-26T16:42:04.683Z,101551.51
2018-12-26T16:45:20.120Z,101553.41
2018-12-26T16:48:42.885Z,101543.14
2018-12-26T16:51:58.664Z,101543.80
2018-12-26T16:55:14.229Z,101540.53
2018-12-26T16:58:29.569Z,101537.92
2018-12-26T17:01:44.860Z,101542.78
2018-12-26T17:05:07.317Z,101542.34
2018-12-26T17:08:23.257Z,101462.45
2018-12-26T17:11:46.056Z,101541.70
2018-12-26T17:15:01.513Z,101534.48
2018-12-26T17:18:24.019Z,101534.38
2018-12-26T17:21:39.052Z,101471.47
2018-12-26T17:25:01.850Z,101522.68
2018-12-26T17:28:17.744Z,101441.42
2018-12-26T17:31:40.153Z,101518.06
2018-12-26T17:34:56.316Z,101519.27
2018-12-26T17:38:11.485Z,101515.59
2018-12-26T17:41:34.905Z,101442.41
2018-12-26T17:44:50.309Z,101521.16
2018-12-26T17:48:06.065Z,101514.33
2018-12-26T17:51:22.117Z,101512.84
2018-12-26T17:54:47.815Z,101514.59
2018-12-26T17:58:03.532Z,101465.28
2018-12-26T18:01:31.087Z,101447.52
2018-12-26T18:04:46.591Z,101511.25
2018-12-26T18:08:01.904Z,101506.08
2018-12-26T18:11:24.396Z,101516.19
2018-12-26T18:14:39.744Z,101519.72
2018-12-26T18:18:02.509Z,101433.30
2018-12-26T18:21:18.578Z,101516.14
2018-12-26T18:24:33.906Z,101509.62
2018-12-26T18:27:56.406Z,101518.17
2018-12-26T18:31:12.160Z,101511.03
2018-12-26T18:34:27.332Z,101522.71
2018-12-26T18:37:49.753Z,101424.33
2018-12-26T18:41:04.787Z,101523.11
2018-12-26T18:44:29.647Z,101449.19
2018-12-26T18:48:05.216Z,101530.58
2018-12-26T18:51:20.565Z,101523.42
2018-12-26T18:54:35.736Z,101520.31
2018-12-26T18:57:58.115Z,101519.55
2018-12-26T19:01:13.843Z,101505.45
2018-12-26T19:04:36.242Z,101514.60
2018-12-26T19:07:52.423Z,101520.95
2018-12-26T19:11:09.227Z,101510.92
2018-12-26T19:14:32.257Z,101512.39
2018-12-26T19:17:48.099Z,101518.70
2018-12-26T19:21:03.199Z,101467.30
2018-12-26T19:24:25.720Z,101508.23
2018-12-26T19:27:41.537Z,101503.12
2018-12-26T19:30:57.266Z,101506.52
2018-12-26T19:34:00.192Z,101505.08
2018-12-26T19:37:15.849Z,101503.23
2018-12-26T19:40:31.324Z,101483.39
2018-12-26T19:43:54.043Z,101480.18
2018-12-26T19:47:09.806Z,101477.30
2018-12-26T19:50:25.085Z,101394.08
2018-12-26T19:53:40.445Z,101451.25
2018-12-26T19:56:55.629Z,101483.55
2018-12-26T20:00:18.025Z,101468.80
2018-12-26T20:03:33.850Z,101471.10
2018-12-26T20:06:56.261Z,101418.90
2018-12-26T20:10:11.597Z,101466.18
2018-12-26T20:13:34.114Z,101454.80
2018-12-26T20:16:49.488Z,101451.77
2018-12-26T20:20:11.874Z,101453.28
2018-12-26T20:23:27.266Z,101455.37
2018-12-26T20:26:50.359Z,101460.23
2018-12-26T20:30:06.602Z,101382.82
2018-12-26T20:33:21.950Z,101460.25
2018-12-26T20:36:45.296Z,101457.33
2018-12-26T20:40:01.351Z,101453.03
2018-12-26T20:43:24.031Z,101452.08
2018-12-26T20:46:40.073Z,101448.94
2018-12-26T20:50:02.856Z,101445.98
2018-12-26T20:53:18.500Z,101455.55
2018-12-26T20:56:40.903Z,101387.81
2018-12-26T20:59:56.363Z,101451.19
2018-12-26T21:03:19.084Z,101436.27
2018-12-26T21:06:35.072Z,101351.25
2018-12-26T21:09:57.502Z,101446.48
2018-12-26T21:13:13.352Z,101445.12
2018-12-26T21:16:36.100Z,101446.07
2018-12-26T21:19:51.995Z,101448.09
2018-12-26T21:23:14.742Z,101443.89
2018-12-26T21:26:31.769Z,101357.67
2018-12-26T21:29:54.621Z,101369.56
2018-12-26T21:33:09.678Z,101417.28
2018-12-26T21:36:32.055Z,101420.60
2018-12-26T21:39:47.542Z,101425.86
2018-12-26T21:43:10.048Z,101412.36
2018-12-26T21:46:25.513Z,101414.56
2018-12-26T21:49:40.882Z,101402.91
2018-12-26T21:53:03.264Z,101406.97
2018-12-26T21:56:20.499Z,101406.91
2018-12-26T21:59:43.018Z,101403.39
2018-12-26T22:02:59.172Z,101350.83
2018-12-26T22:06:14.457Z,101392.91
2018-12-26T22:09:37.265Z,101385.95
2018-12-26T22:12:52.862Z,101383.77
2018-12-26T22:16:15.660Z,101290.57
2018-12-26T22:19:30.728Z,101371.27
2018-12-26T22:22:53.105Z,101371.88
2018-12-26T22:26:08.384Z,101373.13
2018-12-26T22:29:31.310Z,101369.94
2018-12-26T22:32:47.037Z,101377.00
2018-12-26T22:36:09.544Z,101369.45
2018-12-26T22:39:24.804Z,101343.38
2018-12-26T22:42:40.022Z,101374.09
2018-12-26T22:46:02.767Z,101369.58
2018-12-26T22:49:18.489Z,101359.41
2018-12-26T22:52:33.982Z,101367.80
2018-12-26T22:55:56.381Z,101353.88
2018-12-26T22:59:12.554Z,101262.58
2018-12-26T23:02:27.850Z,101332.42
2018-12-26T23:05:50.245Z,101343.42
2018-12-26T23:09:05.968Z,101349.12
2018-12-26T23:12:28.854Z,101348.98
2018-12-26T23:15:44.598Z,101343.97
2018-12-26T23:19:07.256Z,101340.69
2018-12-26T23:22:23.114Z,101342.37
2018-12-26T23:25:45.827Z,101348.75
2018-12-26T23:29:01.749Z,101349.77
2018-12-26T23:32:24.168Z,101333.20
2018-12-26T23:35:40.191Z,101354.14
2018-12-26T23:39:16.165Z,101274.09
2018-12-26T23:42:38.586Z,101360.80
2018-12-26T23:45:54.377Z,101358.25
2018-12-26T23:49:16.783Z,101346.25
2018-12-26T23:52:32.472Z,101338.01
2018-12-26T23:55:55.197Z,101341.20
2018-12-26T23:59:11.387Z,101326.55
